sensor_id;sensor_type;location;lat;lon;timestamp;temperature;humidity
25839;DHT22;13669;50.186;27.062;2022-12-29T00:00:20;1.70;55.80
25839;DHT22;13669;50.186;27.062;2022-12-29T00:02:48;1.70;99.90
25839;DHT22;13669;50.186;27.062;2022-12-29T00:05:15;1.70;99.90
25839;DHT22;13669;50.186;27.062;2022-12-29T00:07:43;1.70;99.90
25839;DHT22;13669;50.186;27.062;2022-12-29T00:10:10;1.60;99.90
25839;DHT22;13669;50.186;27.062;2022-12-29T00:12:38;1.60;1.00
25839;DHT22;13669;50.186;27.062;2022-12-29T00:15:24;1.60;1.00
25839;DHT22;13669;50.186;27.062;2022-12-29T00:18:07;1.60;1.00
25839;DHT22;13669;50.186;27.062;2022-12-29T00:20:36;1.60;1.00
25839;DHT22;13669;50.186;27.062;2022-12-29T00:23:22;1.60;1.00
25839;DHT22;13669;50.186;27.062;2022-12-29T00:26:16;1.60;99.90
25839;DHT22;13669;50.186;27.062;2022-12-29T00:29:03;1.60;1.00
25839;DHT22;13669;50.186;27.062;2022-12-29T00:31:49;1.60;99.90
25839;DHT22;13669;50.186;27.062;2022-12-29T00:34:35;1.60;99.90
25839;DHT22;13669;50.186;27.062;2022-12-29T00:37:21;1.60;1.00
25839;DHT22;13669;50.186;27.062;2022-12-29T00:40:09;1.60;1.00
25839;DHT22;13669;50.186;27.062;2022-12-29T00:42:55;1.50;1.00
25839;DHT22;13669;50.186;27.062;2022-12-29T00:45:41;1.50;32.50
25839;DHT22;13669;50.186;27.062;2022-12-29T00:48:09;1.50;99.90
25839;DHT22;13669;50.186;27.062;2022-12-29T00:50:36;1.50;99.90
25839;DHT22;13669;50.186;27.062;2022-12-29T00:53:04;1.50;99.90
25839;DHT22;13669;50.186;27.062;2022-12-29T00:55:31;1.50;99.90
25839;DHT22;13669;50.186;27.062;2022-12-29T00:58:03;1.50;99.90
25839;DHT22;13669;50.186;27.062;2022-12-29T01:00:30;1.40;99.90
25839;DHT22;13669;50.186;27.062;2022-12-29T01:02:58;1.50;98.40
25839;DHT22;13669;50.186;27.062;2022-12-29T01:05:25;1.50;67.90
25839;DHT22;13669;50.186;27.062;2022-12-29T01:07:53;1.50;18.90
25839;DHT22;13669;50.186;27.062;2022-12-29T01:10:20;1.50;1.00
25839;DHT22;13669;50.186;27.062;2022-12-29T01:12:48;1.50;1.00
25839;DHT22;13669;50.186;27.062;2022-12-29T01:15:17;1.50;1.00
25839;DHT22;13669;50.186;27.062;2022-12-29T01:17:45;1.50;1.00
25839;DHT22;13669;50.186;27.062;2022-12-29T01:20:12;1.50;1.00
25839;DHT22;13669;50.186;27.062;2022-12-29T01:22:40;1.60;1.00
25839;DHT22;13669;50.186;27.062;2022-12-29T01:25:09;1.60;1.00
25839;DHT22;13669;50.186;27.062;2022-12-29T01:27:37;1.60;1.00
25839;DHT22;13669;50.186;27.062;2022-12-29T01:30:05;1.50;1.00
25839;DHT22;13669;50.186;27.062;2022-12-29T01:32:33;1.50;1.00
25839;DHT22;13669;50.186;27.062;2022-12-29T01:35:00;1.50;15.80
25839;DHT22;13669;50.186;27.062;2022-12-29T01:37:28;1.50;99.90
25839;DHT22;13669;50.186;27.062;2022-12-29T01:39:55;1.40;99.90
25839;DHT22;13669;50.186;27.062;2022-12-29T01:42:24;1.50;99.90
25839;DHT22;13669;50.186;27.062;2022-12-29T01:44:59;1.50;99.90
25839;DHT22;13669;50.186;27.062;2022-12-29T01:47:50;1.40;99.90
25839;DHT22;13669;50.186;27.062;2022-12-29T01:52:57;1.40;99.90
25839;DHT22;13669;50.186;27.062;2022-12-29T01:55:27;1.40;99.90
25839;DHT22;13669;50.186;27.062;2022-12-29T01:57:59;1.40;99.90
25839;DHT22;13669;50.186;27.062;2022-12-29T02:00:28;1.40;99.90
25839;DHT22;13669;50.186;27.062;2022-12-29T02:02:55;1.40;1.00
25839;DHT22;13669;50.186;27.062;2022-12-29T02:05:31;1.40;99.90
25839;DHT22;13669;50.186;27.062;2022-12-29T02:08:01;1.40;99.90
25839;DHT22;13669;50.186;27.062;2022-12-29T02:10:31;1.30;99.90
25839;DHT22;13669;50.186;27.062;2022-12-29T02:12:59;1.40;99.90
25839;DHT22;13669;50.186;27.062;2022-12-29T02:27:35;1.50;99.90
25839;DHT22;13669;50.186;27.062;2022-12-29T02:32:57;1.50;99.90
25839;DHT22;13669;50.186;27.062;2022-12-29T02:35:37;1.60;1.00
25839;DHT22;13669;50.186;27.062;2022-12-29T02:41:02;1.70;1.00
25839;DHT22;13669;50.186;27.062;2022-12-29T02:43:47;1.80;99.90
25839;DHT22;13669;50.186;27.062;2022-12-29T02:46:31;1.80;99.90
25839;DHT22;13669;50.186;27.062;2022-12-29T02:51:50;1.90;99.90
25839;DHT22;13669;50.186;27.062;2022-12-29T02:54:19;1.90;99.90
25839;DHT22;13669;50.186;27.062;2022-12-29T02:57:27;1.80;99.90
25839;DHT22;13669;50.186;27.062;2022-12-29T03:00:00;1.90;99.90
25839;DHT22;13669;50.186;27.062;2022-12-29T03:08:36;1.90;99.90
25839;DHT22;13669;50.186;27.062;2022-12-29T03:11:12;1.90;99.90
25839;DHT22;13669;50.186;27.062;2022-12-29T03:14:13;1.90;99.90
25839;DHT22;13669;50.186;27.062;2022-12-29T03:17:02;1.90;99.90
25839;DHT22;13669;50.186;27.062;2022-12-29T03:19:40;1.90;99.90
25839;DHT22;13669;50.186;27.062;2022-12-29T03:22:13;1.90;99.90
25839;DHT22;13669;50.186;27.062;2022-12-29T03:25:01;1.90;99.90
25839;DHT22;13669;50.186;27.062;2022-12-29T03:27:36;1.90;99.90
25839;DHT22;13669;50.186;27.062;2022-12-29T03:30:06;1.90;99.90
25839;DHT22;13669;50.186;27.062;2022-12-29T03:33:09;1.90;99.90
25839;DHT22;13669;50.186;27.062;2022-12-29T03:35:40;1.90;99.90
25839;DHT22;13669;50.186;27.062;2022-12-29T03:40:51;1.90;99.90
25839;DHT22;13669;50.186;27.062;2022-12-29T03:43:19;1.80;99.90
25839;DHT22;13669;50.186;27.062;2022-12-29T03:45:47;1.90;99.90
25839;DHT22;13669;50.186;27.062;2022-12-29T03:48:14;1.80;99.90
25839;DHT22;13669;50.186;27.062;2022-12-29T03:50:42;1.90;99.90
25839;DHT22;13669;50.186;27.062;2022-12-29T03:53:09;1.90;99.90
25839;DHT22;13669;50.186;27.062;2022-12-29T03:55:37;1.90;1.00
25839;DHT22;13669;50.186;27.062;2022-12-29T03:58:04;1.90;1.00
25839;DHT22;13669;50.186;27.062;2022-12-29T04:00:32;1.80;1.00
25839;DHT22;13669;50.186;27.062;2022-12-29T04:03:00;1.80;1.00
25839;DHT22;13669;50.186;27.062;2022-12-29T04:05:28;1.80;1.00
25839;DHT22;13669;50.186;27.062;2022-12-29T04:07:55;1.70;1.00
25839;DHT22;13669;50.186;27.062;2022-12-29T04:10:23;1.80;1.00
25839;DHT22;13669;50.186;27.062;2022-12-29T04:12:50;1.80;52.10
25839;DHT22;13669;50.186;27.062;2022-12-29T04:15:17;1.70;31.20
25839;DHT22;13669;50.186;27.062;2022-12-29T04:17:45;1.70;51.00
25839;DHT22;13669;50.186;27.062;2022-12-29T04:20:12;1.80;37.50
25839;DHT22;13669;50.186;27.062;2022-12-29T04:23:08;1.70;99.90
25839;DHT22;13669;50.186;27.062;2022-12-29T04:25:35;1.70;10.90
25839;DHT22;13669;50.186;27.062;2022-12-29T04:28:03;1.70;27.50
25839;DHT22;13669;50.186;27.062;2022-12-29T04:30:30;1.80;99.90
25839;DHT22;13669;50.186;27.062;2022-12-29T04:32:58;1.80;99.90
25839;DHT22;13669;50.186;27.062;2022-12-29T04:35:25;1.70;99.90
25839;DHT22;13669;50.186;27.062;2022-12-29T04:37:53;1.80;99.90
25839;DHT22;13669;50.186;27.062;2022-12-29T04:40:20;1.80;99.90
25839;DHT22;13669;50.186;27.062;2022-12-29T04:42:48;1.80;99.90
25839;DHT22;13669;50.186;27.062;2022-12-29T04:45:16;1.80;99.90
25839;DHT22;13669;50.186;27.062;2022-12-29T04:47:44;1.80;99.90
25839;DHT22;13669;50.186;27.062;2022-12-29T04:50:12;1.70;99.90
25839;DHT22;13669;50.186;27.062;2022-12-29T04:52:40;1.80;99.90
25839;DHT22;13669;50.186;27.062;2022-12-29T04:55:07;1.70;1.00
25839;DHT22;13669;50.186;27.062;2022-12-29T04:57:35;1.80;99.90
25839;DHT22;13669;50.186;27.062;2022-12-29T05:00:03;1.80;1.00
25839;DHT22;13669;50.186;27.062;2022-12-29T05:02:32;1.80;1.00
25839;DHT22;13669;50.186;27.062;2022-12-29T05:05:00;1.80;99.90
25839;DHT22;13669;50.186;27.062;2022-12-29T05:07:27;1.80;99.90
25839;DHT22;13669;50.186;27.062;2022-12-29T05:09:55;1.90;99.90
25839;DHT22;13669;50.186;27.062;2022-12-29T05:12:22;1.80;99.90
25839;DHT22;13669;50.186;27.062;2022-12-29T05:14:49;1.90;99.90
25839;DHT22;13669;50.186;27.062;2022-12-29T05:17:17;1.80;99.90
25839;DHT22;13669;50.186;27.062;2022-12-29T05:19:44;1.90;99.90
25839;DHT22;13669;50.186;27.062;2022-12-29T05:22:12;1.90;1.00
25839;DHT22;13669;50.186;27.062;2022-12-29T05:24:40;2.00;1.00
25839;DHT22;13669;50.186;27.062;2022-12-29T05:27:07;2.00;1.00
25839;DHT22;13669;50.186;27.062;2022-12-29T05:29:35;2.00;1.00
25839;DHT22;13669;50.186;27.062;2022-12-29T05:32:02;2.00;1.00
25839;DHT22;13669;50.186;27.062;2022-12-29T05:34:30;2.00;99.90
25839;DHT22;13669;50.186;27.062;2022-12-29T05:36:57;2.10;99.90
25839;DHT22;13669;50.186;27.062;2022-12-29T05:39:25;2.10;99.90
25839;DHT22;13669;50.186;27.062;2022-12-29T05:41:52;2.10;99.90
25839;DHT22;13669;50.186;27.062;2022-12-29T05:44:20;2.10;99.90
25839;DHT22;13669;50.186;27.062;2022-12-29T05:46:47;2.10;99.90
25839;DHT22;13669;50.186;27.062;2022-12-29T05:49:16;2.10;99.90
25839;DHT22;13669;50.186;27.062;2022-12-29T05:51:44;2.10;99.90
25839;DHT22;13669;50.186;27.062;2022-12-29T05:54:11;2.20;99.90
25839;DHT22;13669;50.186;27.062;2022-12-29T05:56:39;2.20;99.90
25839;DHT22;13669;50.186;27.062;2022-12-29T05:59:06;2.20;99.90
25839;DHT22;13669;50.186;27.062;2022-12-29T06:01:34;2.20;99.90
25839;DHT22;13669;50.186;27.062;2022-12-29T06:04:02;2.20;99.90
25839;DHT22;13669;50.186;27.062;2022-12-29T06:06:29;2.20;99.90
25839;DHT22;13669;50.186;27.062;2022-12-29T06:08:57;2.20;99.90
25839;DHT22;13669;50.186;27.062;2022-12-29T06:11:25;2.20;69.00
25839;DHT22;13669;50.186;27.062;2022-12-29T06:13:53;2.20;29.60
25839;DHT22;13669;50.186;27.062;2022-12-29T06:16:20;2.20;73.10
25839;DHT22;13669;50.186;27.062;2022-12-29T06:18:48;2.10;83.80
25839;DHT22;13669;50.186;27.062;2022-12-29T06:21:15;2.20;1.00
25839;DHT22;13669;50.186;27.062;2022-12-29T06:23:43;2.20;1.60
25839;DHT22;13669;50.186;27.062;2022-12-29T06:26:10;2.20;3.10
25839;DHT22;13669;50.186;27.062;2022-12-29T06:28:38;2.20;1.00
25839;DHT22;13669;50.186;27.062;2022-12-29T06:31:09;2.20;1.00
25839;DHT22;13669;50.186;27.062;2022-12-29T06:33:38;2.20;1.00
25839;DHT22;13669;50.186;27.062;2022-12-29T06:36:05;2.20;1.00
25839;DHT22;13669;50.186;27.062;2022-12-29T06:38:33;2.20;1.00
25839;DHT22;13669;50.186;27.062;2022-12-29T06:41:02;2.20;1.00
25839;DHT22;13669;50.186;27.062;2022-12-29T06:43:29;2.20;1.00
25839;DHT22;13669;50.186;27.062;2022-12-29T06:45:58;2.20;99.90
25839;DHT22;13669;50.186;27.062;2022-12-29T06:48:25;2.20;99.90
25839;DHT22;13669;50.186;27.062;2022-12-29T06:50:52;2.20;99.90
25839;DHT22;13669;50.186;27.062;2022-12-29T06:53:20;2.30;99.90
25839;DHT22;13669;50.186;27.062;2022-12-29T06:55:47;2.30;99.90
25839;DHT22;13669;50.186;27.062;2022-12-29T06:58:15;2.30;99.90
25839;DHT22;13669;50.186;27.062;2022-12-29T07:00:43;2.30;99.90
25839;DHT22;13669;50.186;27.062;2022-12-29T07:03:11;2.30;99.90
25839;DHT22;13669;50.186;27.062;2022-12-29T07:05:38;2.40;99.90
25839;DHT22;13669;50.186;27.062;2022-12-29T07:08:06;2.40;99.90
25839;DHT22;13669;50.186;27.062;2022-12-29T07:10:33;2.40;99.90
25839;DHT22;13669;50.186;27.062;2022-12-29T07:13:01;2.40;99.90
25839;DHT22;13669;50.186;27.062;2022-12-29T07:15:29;2.40;99.90
25839;DHT22;13669;50.186;27.062;2022-12-29T07:17:56;2.40;99.90
25839;DHT22;13669;50.186;27.062;2022-12-29T07:20:24;2.40;99.90
25839;DHT22;13669;50.186;27.062;2022-12-29T07:22:53;2.40;99.90
25839;DHT22;13669;50.186;27.062;2022-12-29T07:25:21;2.40;99.90
25839;DHT22;13669;50.186;27.062;2022-12-29T07:27:49;2.50;99.90
25839;DHT22;13669;50.186;27.062;2022-12-29T07:30:16;2.50;99.90
25839;DHT22;13669;50.186;27.062;2022-12-29T07:32:44;2.50;99.90
25839;DHT22;13669;50.186;27.062;2022-12-29T07:35:11;2.50;99.90
25839;DHT22;13669;50.186;27.062;2022-12-29T07:37:39;2.50;99.90
25839;DHT22;13669;50.186;27.062;2022-12-29T07:40:07;2.50;99.90
25839;DHT22;13669;50.186;27.062;2022-12-29T07:42:34;2.50;99.90
25839;DHT22;13669;50.186;27.062;2022-12-29T07:45:02;2.60;99.90
25839;DHT22;13669;50.186;27.062;2022-12-29T07:47:30;2.60;99.90
25839;DHT22;13669;50.186;27.062;2022-12-29T07:49:57;2.60;99.90
25839;DHT22;13669;50.186;27.062;2022-12-29T07:52:25;2.60;99.90
25839;DHT22;13669;50.186;27.062;2022-12-29T07:54:52;2.60;99.90
25839;DHT22;13669;50.186;27.062;2022-12-29T07:57:20;2.70;99.90
25839;DHT22;13669;50.186;27.062;2022-12-29T07:59:54;2.70;99.90
25839;DHT22;13669;50.186;27.062;2022-12-29T08:02:21;2.80;99.90
25839;DHT22;13669;50.186;27.062;2022-12-29T08:04:50;2.80;99.90
25839;DHT22;13669;50.186;27.062;2022-12-29T08:07:17;2.90;39.40
25839;DHT22;13669;50.186;27.062;2022-12-29T08:09:45;2.90;1.00
25839;DHT22;13669;50.186;27.062;2022-12-29T08:12:12;3.00;1.00
25839;DHT22;13669;50.186;27.062;2022-12-29T08:14:39;3.00;1.00
25839;DHT22;13669;50.186;27.062;2022-12-29T08:17:07;3.00;1.00
25839;DHT22;13669;50.186;27.062;2022-12-29T08:19:35;3.10;1.00
25839;DHT22;13669;50.186;27.062;2022-12-29T08:22:03;3.10;1.00
25839;DHT22;13669;50.186;27.062;2022-12-29T08:24:30;3.20;1.00
25839;DHT22;13669;50.186;27.062;2022-12-29T08:26:58;3.20;1.00
25839;DHT22;13669;50.186;27.062;2022-12-29T08:29:35;3.30;1.00
25839;DHT22;13669;50.186;27.062;2022-12-29T08:32:02;3.30;1.00
25839;DHT22;13669;50.186;27.062;2022-12-29T08:34:31;3.30;1.00
25839;DHT22;13669;50.186;27.062;2022-12-29T08:36:59;3.30;1.00
25839;DHT22;13669;50.186;27.062;2022-12-29T08:39:26;3.40;1.00
25839;DHT22;13669;50.186;27.062;2022-12-29T08:41:54;3.40;99.90
25839;DHT22;13669;50.186;27.062;2022-12-29T08:44:22;3.40;99.90
25839;DHT22;13669;50.186;27.062;2022-12-29T08:46:50;3.40;99.90
25839;DHT22;13669;50.186;27.062;2022-12-29T08:49:17;3.50;99.90
25839;DHT22;13669;50.186;27.062;2022-12-29T08:51:45;3.50;99.90
25839;DHT22;13669;50.186;27.062;2022-12-29T08:54:13;3.60;99.90
25839;DHT22;13669;50.186;27.062;2022-12-29T08:56:40;3.60;99.90
25839;DHT22;13669;50.186;27.062;2022-12-29T08:59:08;3.60;99.90
25839;DHT22;13669;50.186;27.062;2022-12-29T09:01:35;3.70;99.90
25839;DHT22;13669;50.186;27.062;2022-12-29T09:04:03;3.70;99.90
25839;DHT22;13669;50.186;27.062;2022-12-29T09:06:46;3.70;99.90
25839;DHT22;13669;50.186;27.062;2022-12-29T09:09:14;3.80;99.90
25839;DHT22;13669;50.186;27.062;2022-12-29T09:11:42;3.80;99.90
25839;DHT22;13669;50.186;27.062;2022-12-29T09:14:09;3.90;99.90
25839;DHT22;13669;50.186;27.062;2022-12-29T09:16:37;3.90;99.90
25839;DHT22;13669;50.186;27.062;2022-12-29T09:19:05;3.90;99.90
25839;DHT22;13669;50.186;27.062;2022-12-29T09:21:33;3.90;99.90
25839;DHT22;13669;50.186;27.062;2022-12-29T09:24:00;4.00;99.90
25839;DHT22;13669;50.186;27.062;2022-12-29T09:26:28;4.00;99.90
25839;DHT22;13669;50.186;27.062;2022-12-29T09:28:56;4.00;99.90
25839;DHT22;13669;50.186;27.062;2022-12-29T09:31:24;4.00;99.90
25839;DHT22;13669;50.186;27.062;2022-12-29T09:33:52;4.00;99.90
25839;DHT22;13669;50.186;27.062;2022-12-29T09:36:20;4.00;99.90
25839;DHT22;13669;50.186;27.062;2022-12-29T09:38:47;4.00;99.90
25839;DHT22;13669;50.186;27.062;2022-12-29T09:44:29;4.00;99.90
25839;DHT22;13669;50.186;27.062;2022-12-29T09:46:59;4.00;99.90
25839;DHT22;13669;50.186;27.062;2022-12-29T09:52:14;4.10;99.90
25839;DHT22;13669;50.186;27.062;2022-12-29T09:57:50;4.10;99.90
25839;DHT22;13669;50.186;27.062;2022-12-29T10:00:22;4.20;99.90
25839;DHT22;13669;50.186;27.062;2022-12-29T10:02:56;4.20;99.90
25839;DHT22;13669;50.186;27.062;2022-12-29T10:10:58;4.30;99.90
25839;DHT22;13669;50.186;27.062;2022-12-29T10:13:43;4.40;99.90
25839;DHT22;13669;50.186;27.062;2022-12-29T10:16:18;4.50;99.90
25839;DHT22;13669;50.186;27.062;2022-12-29T10:24:19;4.50;99.90
25839;DHT22;13669;50.186;27.062;2022-12-29T10:26:50;4.50;99.90
25839;DHT22;13669;50.186;27.062;2022-12-29T10:29:37;4.60;99.90
25839;DHT22;13669;50.186;27.062;2022-12-29T10:32:14;4.60;99.90
25839;DHT22;13669;50.186;27.062;2022-12-29T10:34:48;4.50;99.90
25839;DHT22;13669;50.186;27.062;2022-12-29T10:39:52;4.60;99.90
25839;DHT22;13669;50.186;27.062;2022-12-29T10:42:46;4.60;99.90
25839;DHT22;13669;50.186;27.062;2022-12-29T10:45:16;4.50;99.90
25839;DHT22;13669;50.186;27.062;2022-12-29T10:48:05;4.40;99.90
25839;DHT22;13669;50.186;27.062;2022-12-29T10:50:33;4.40;99.90
25839;DHT22;13669;50.186;27.062;2022-12-29T10:53:04;4.30;99.90
25839;DHT22;13669;50.186;27.062;2022-12-29T10:55:35;4.30;99.90
25839;DHT22;13669;50.186;27.062;2022-12-29T10:58:07;4.30;99.90
25839;DHT22;13669;50.186;27.062;2022-12-29T11:00:37;4.30;99.90
25839;DHT22;13669;50.186;27.062;2022-12-29T11:08:36;4.40;99.90
25839;DHT22;13669;50.186;27.062;2022-12-29T11:11:08;4.40;99.90
25839;DHT22;13669;50.186;27.062;2022-12-29T11:13:48;4.40;99.90
25839;DHT22;13669;50.186;27.062;2022-12-29T11:16:33;4.40;99.90
25839;DHT22;13669;50.186;27.062;2022-12-29T11:19:02;4.50;99.90
25839;DHT22;13669;50.186;27.062;2022-12-29T11:21:34;4.50;99.90
25839;DHT22;13669;50.186;27.062;2022-12-29T11:24:25;4.50;99.90
25839;DHT22;13669;50.186;27.062;2022-12-29T11:27:13;4.60;99.90
25839;DHT22;13669;50.186;27.062;2022-12-29T11:29:43;4.70;99.90
25839;DHT22;13669;50.186;27.062;2022-12-29T11:32:27;4.70;99.90
25839;DHT22;13669;50.186;27.062;2022-12-29T11:34:57;4.80;99.90
25839;DHT22;13669;50.186;27.062;2022-12-29T11:37:31;4.70;99.90
25839;DHT22;13669;50.186;27.062;2022-12-29T11:42:35;4.80;99.90
25839;DHT22;13669;50.186;27.062;2022-12-29T11:45:15;4.90;99.90
25839;DHT22;13669;50.186;27.062;2022-12-29T11:47:45;4.90;99.90
25839;DHT22;13669;50.186;27.062;2022-12-29T11:50:25;5.10;99.90
25839;DHT22;13669;50.186;27.062;2022-12-29T11:53:05;5.10;99.90
25839;DHT22;13669;50.186;27.062;2022-12-29T11:55:34;5.30;99.90
25839;DHT22;13669;50.186;27.062;2022-12-29T11:58:03;5.70;99.90
25839;DHT22;13669;50.186;27.062;2022-12-29T12:00:34;5.90;94.90
25839;DHT22;13669;50.186;27.062;2022-12-29T12:03:13;5.90;57.40
25839;DHT22;13669;50.186;27.062;2022-12-29T12:05:56;5.90;36.80
25839;DHT22;13669;50.186;27.062;2022-12-29T12:11:28;5.80;20.90
25839;DHT22;13669;50.186;27.062;2022-12-29T12:16:40;5.80;13.30
25839;DHT22;13669;50.186;27.062;2022-12-29T12:19:18;5.80;10.10
25839;DHT22;13669;50.186;27.062;2022-12-29T12:21:51;5.80;5.70
25839;DHT22;13669;50.186;27.062;2022-12-29T12:24:46;5.80;1.00
25839;DHT22;13669;50.186;27.062;2022-12-29T12:27:26;6.40;2.80
25839;DHT22;13669;50.186;27.062;2022-12-29T12:30:04;7.90;1.00
25839;DHT22;13669;50.186;27.062;2022-12-29T12:32:58;9.90;1.00
25839;DHT22;13669;50.186;27.062;2022-12-29T12:35:44;11.40;1.00
25839;DHT22;13669;50.186;27.062;2022-12-29T12:41:03;12.80;99.90
25839;DHT22;13669;50.186;27.062;2022-12-29T12:58:41;7.50;99.90
25839;DHT22;13669;50.186;27.062;2022-12-29T13:01:51;7.10;99.90
25839;DHT22;13669;50.186;27.062;2022-12-29T13:24:15;10.10;99.90
25839;DHT22;13669;50.186;27.062;2022-12-29T13:29:48;11.50;99.90
25839;DHT22;13669;50.186;27.062;2022-12-29T13:32:35;11.50;99.90
25839;DHT22;13669;50.186;27.062;2022-12-29T13:38:03;9.60;99.90
25839;DHT22;13669;50.186;27.062;2022-12-29T13:40:36;9.00;99.90
25839;DHT22;13669;50.186;27.062;2022-12-29T13:43:06;8.90;99.90
25839;DHT22;13669;50.186;27.062;2022-12-29T13:45:34;9.30;99.90
25839;DHT22;13669;50.186;27.062;2022-12-29T13:48:12;9.10;99.90
25839;DHT22;13669;50.186;27.062;2022-12-29T13:50:45;8.60;99.90
25839;DHT22;13669;50.186;27.062;2022-12-29T13:59:24;6.70;99.90
25839;DHT22;13669;50.186;27.062;2022-12-29T14:04:27;6.80;99.90
25839;DHT22;13669;50.186;27.062;2022-12-29T14:07:06;6.40;99.90
25839;DHT22;13669;50.186;27.062;2022-12-29T14:09:41;6.10;99.90
25839;DHT22;13669;50.186;27.062;2022-12-29T14:12:40;6.00;99.90
25839;DHT22;13669;50.186;27.062;2022-12-29T14:17:37;5.60;99.90
25839;DHT22;13669;50.186;27.062;2022-12-29T14:20:20;5.40;99.90
25839;DHT22;13669;50.186;27.062;2022-12-29T14:23:16;5.20;1.00
25839;DHT22;13669;50.186;27.062;2022-12-29T14:25:59;5.10;1.00
25839;DHT22;13669;50.186;27.062;2022-12-29T14:28:34;5.00;1.00
25839;DHT22;13669;50.186;27.062;2022-12-29T14:31:04;4.90;1.00
25839;DHT22;13669;50.186;27.062;2022-12-29T14:33:33;4.90;1.00
25839;DHT22;13669;50.186;27.062;2022-12-29T14:36:24;4.90;1.00
25839;DHT22;13669;50.186;27.062;2022-12-29T14:38:52;4.80;1.00
25839;DHT22;13669;50.186;27.062;2022-12-29T14:41:24;4.80;1.00
25839;DHT22;13669;50.186;27.062;2022-12-29T14:49:22;4.80;1.00
25839;DHT22;13669;50.186;27.062;2022-12-29T14:51:55;4.80;1.00
25839;DHT22;13669;50.186;27.062;2022-12-29T14:57:00;4.80;1.00
25839;DHT22;13669;50.186;27.062;2022-12-29T14:59:30;4.80;1.00
25839;DHT22;13669;50.186;27.062;2022-12-29T15:02:03;4.80;1.00
25839;DHT22;13669;50.186;27.062;2022-12-29T15:04:32;4.70;1.00
25839;DHT22;13669;50.186;27.062;2022-12-29T15:07:00;4.70;1.00
25839;DHT22;13669;50.186;27.062;2022-12-29T15:09:41;4.70;1.00
25839;DHT22;13669;50.186;27.062;2022-12-29T15:14:55;4.60;1.00
25839;DHT22;13669;50.186;27.062;2022-12-29T15:17:30;4.60;1.00
25839;DHT22;13669;50.186;27.062;2022-12-29T15:20:00;4.60;1.00
25839;DHT22;13669;50.186;27.062;2022-12-29T15:22:27;4.60;1.00
25839;DHT22;13669;50.186;27.062;2022-12-29T15:24:55;4.60;1.00
25839;DHT22;13669;50.186;27.062;2022-12-29T15:27:25;4.60;1.00
25839;DHT22;13669;50.186;27.062;2022-12-29T15:29:59;4.60;1.00
25839;DHT22;13669;50.186;27.062;2022-12-29T15:32:39;4.50;1.00
25839;DHT22;13669;50.186;27.062;2022-12-29T15:35:32;4.50;1.00
25839;DHT22;13669;50.186;27.062;2022-12-29T15:38:14;4.50;1.00
25839;DHT22;13669;50.186;27.062;2022-12-29T15:40:43;4.40;1.00
25839;DHT22;13669;50.186;27.062;2022-12-29T15:45:50;4.40;1.00
25839;DHT22;13669;50.186;27.062;2022-12-29T15:48:22;4.30;1.00
25839;DHT22;13669;50.186;27.062;2022-12-29T15:50:50;4.30;1.00
25839;DHT22;13669;50.186;27.062;2022-12-29T15:53:21;4.30;1.00
25839;DHT22;13669;50.186;27.062;2022-12-29T15:55:52;4.20;1.00
25839;DHT22;13669;50.186;27.062;2022-12-29T15:58:28;4.10;1.00
25839;DHT22;13669;50.186;27.062;2022-12-29T16:01:00;4.10;1.00
25839;DHT22;13669;50.186;27.062;2022-12-29T16:03:33;4.10;1.00
25839;DHT22;13669;50.186;27.062;2022-12-29T16:09:18;4.10;5.20
25839;DHT22;13669;50.186;27.062;2022-12-29T16:11:51;4.10;1.00
25839;DHT22;13669;50.186;27.062;2022-12-29T16:14:29;4.10;1.00
25839;DHT22;13669;50.186;27.062;2022-12-29T16:17:00;4.10;1.00
25839;DHT22;13669;50.186;27.062;2022-12-29T16:19:35;4.10;1.00
25839;DHT22;13669;50.186;27.062;2022-12-29T16:22:10;4.10;1.00
25839;DHT22;13669;50.186;27.062;2022-12-29T16:24:39;4.10;1.00
25839;DHT22;13669;50.186;27.062;2022-12-29T16:27:14;4.10;6.90
25839;DHT22;13669;50.186;27.062;2022-12-29T16:29:44;4.10;14.30
25839;DHT22;13669;50.186;27.062;2022-12-29T16:32:44;4.00;21.60
25839;DHT22;13669;50.186;27.062;2022-12-29T16:35:22;4.00;40.10
25839;DHT22;13669;50.186;27.062;2022-12-29T16:38:21;3.90;69.40
25839;DHT22;13669;50.186;27.062;2022-12-29T16:41:03;4.00;93.00
25839;DHT22;13669;50.186;27.062;2022-12-29T16:43:31;3.90;99.90
25839;DHT22;13669;50.186;27.062;2022-12-29T16:48:36;3.90;99.90
25839;DHT22;13669;50.186;27.062;2022-12-29T16:51:16;3.90;99.90
25839;DHT22;13669;50.186;27.062;2022-12-29T16:53:52;3.90;99.90
25839;DHT22;13669;50.186;27.062;2022-12-29T16:56:26;3.90;99.90
25839;DHT22;13669;50.186;27.062;2022-12-29T16:59:08;3.90;99.90
25839;DHT22;13669;50.186;27.062;2022-12-29T17:01:38;3.90;99.90
25839;DHT22;13669;50.186;27.062;2022-12-29T17:04:08;3.90;99.90
25839;DHT22;13669;50.186;27.062;2022-12-29T17:06:38;3.90;99.90
25839;DHT22;13669;50.186;27.062;2022-12-29T17:09:21;3.90;99.90
25839;DHT22;13669;50.186;27.062;2022-12-29T17:11:51;3.90;99.90
25839;DHT22;13669;50.186;27.062;2022-12-29T17:14:48;3.90;99.90
25839;DHT22;13669;50.186;27.062;2022-12-29T17:19:59;3.80;99.90
25839;DHT22;13669;50.186;27.062;2022-12-29T17:22:30;3.90;99.90
25839;DHT22;13669;50.186;27.062;2022-12-29T17:24:59;3.90;99.90
25839;DHT22;13669;50.186;27.062;2022-12-29T17:27:34;4.00;99.90
25839;DHT22;13669;50.186;27.062;2022-12-29T17:32:37;4.00;99.90
25839;DHT22;13669;50.186;27.062;2022-12-29T17:35:05;4.00;99.90
25839;DHT22;13669;50.186;27.062;2022-12-29T17:37:35;4.00;99.90
25839;DHT22;13669;50.186;27.062;2022-12-29T17:40:05;4.10;99.90
25839;DHT22;13669;50.186;27.062;2022-12-29T17:42:37;4.10;99.90
25839;DHT22;13669;50.186;27.062;2022-12-29T17:45:16;4.10;99.90
25839;DHT22;13669;50.186;27.062;2022-12-29T17:47:44;4.10;99.90
25839;DHT22;13669;50.186;27.062;2022-12-29T17:50:14;4.10;99.90
25839;DHT22;13669;50.186;27.062;2022-12-29T17:52:42;4.10;99.90
25839;DHT22;13669;50.186;27.062;2022-12-29T17:55:16;4.10;99.90
25839;DHT22;13669;50.186;27.062;2022-12-29T17:57:44;4.10;99.90
25839;DHT22;13669;50.186;27.062;2022-12-29T18:00:20;4.20;99.90
25839;DHT22;13669;50.186;27.062;2022-12-29T18:02:48;4.20;99.90
25839;DHT22;13669;50.186;27.062;2022-12-29T18:05:25;4.20;99.90
25839;DHT22;13669;50.186;27.062;2022-12-29T18:07:55;4.10;99.90
25839;DHT22;13669;50.186;27.062;2022-12-29T18:10:24;4.10;99.90
25839;DHT22;13669;50.186;27.062;2022-12-29T18:12:54;4.00;99.90
25839;DHT22;13669;50.186;27.062;2022-12-29T18:15:25;4.00;99.90
25839;DHT22;13669;50.186;27.062;2022-12-29T18:20:37;4.00;99.90
25839;DHT22;13669;50.186;27.062;2022-12-29T18:23:06;4.00;99.90
25839;DHT22;13669;50.186;27.062;2022-12-29T18:26:04;3.90;99.90
25839;DHT22;13669;50.186;27.062;2022-12-29T18:28:32;4.00;99.90
25839;DHT22;13669;50.186;27.062;2022-12-29T18:31:00;4.00;99.90
25839;DHT22;13669;50.186;27.062;2022-12-29T18:33:29;4.00;99.90
25839;DHT22;13669;50.186;27.062;2022-12-29T18:36:02;4.00;99.90